Time,TemperatureF,DewpointF,PressureIn,WindDirection,WindDirectionDegrees,WindSpeedMPH,WindSpeedGustMPH,Humidity,HourlyPrecipIn,Conditions,Clouds,dailyrainin,SoftwareType,DateUTC
2013-03-07 00:03:00,33.2,25.5,29.94,East,82,0.0,1.0,73,0.00,,SKC,0.00,VWS V14.00,2013-03-07 07:03:00,
2013-03-07 00:09:00,33.5,25.8,29.93,East,82,0.0,1.0,73,0.00,,SKC,0.00,VWS V14.00,2013-03-07 07:09:00,
2013-03-07 00:14:00,33.5,26.4,29.93,East,79,0.0,3.0,75,0.00,,SKC,0.00,VWS V14.00,2013-03-07 07:14:00,
2013-03-07 00:19:00,33.2,25.5,29.93,East,79,0.0,3.0,73,0.00,,SKC,0.00,VWS V14.00,2013-03-07 07:19:00,
2013-03-07 00:24:00,32.7,25.3,29.94,East,79,1.0,3.0,74,0.00,,SKC,0.00,VWS V14.00,2013-03-07 07:24:00,
2013-03-07 00:29:00,33.2,26.5,29.94,East,79,0.0,4.0,76,0.00,,SKC,0.00,VWS V14.00,2013-03-07 07:29:00,
2013-03-07 00:35:00,33.3,26.2,29.93,East,79,0.0,0.0,75,0.00,,SKC,0.00,VWS V14.00,2013-03-07 07:35:00,
2013-03-07 00:40:00,33.3,25.6,29.94,East,79,0.0,3.0,73,0.00,,SKC,0.00,VWS V14.00,2013-03-07 07:40:00,
2013-03-07 00:45:00,33.5,25.8,29.94,ENE,65,0.0,3.0,73,0.00,,SKC,0.00,VWS V14.00,2013-03-07 07:45:00,
2013-03-07 00:50:00,33.2,25.5,29.94,ENE,65,0.0,3.0,73,0.00,,SKC,0.00,VWS V14.00,2013-03-07 07:50:00,
2013-03-07 00:56:00,33.2,26.5,29.94,ENE,65,0.0,3.0,76,0.00,,SKC,0.00,VWS V14.00,2013-03-07 07:56:00,
2013-03-07 01:01:00,33.0,25.6,29.93,ENE,65,3.0,4.0,74,0.00,,SKC,0.00,VWS V14.00,2013-03-07 08:01:00,
2013-03-07 01:07:00,32.6,25.2,29.94,ENE,65,0.0,1.0,74,0.00,,SKC,0.00,VWS V14.00,2013-03-07 08:07:00,
2013-03-07 01:12:00,32.4,25.7,29.94,ENE,65,1.0,3.0,76,0.00,,SKC,0.00,VWS V14.00,2013-03-07 08:12:00,
2013-03-07 01:17:00,32.3,25.3,29.94,ENE,65,0.0,3.0,75,0.00,,SKC,0.00,VWS V14.00,2013-03-07 08:17:00,
2013-03-07 01:23:00,31.9,25.2,29.94,ENE,65,2.0,3.0,76,0.00,,SKC,0.00,VWS V14.00,2013-03-07 08:23:00,
2013-03-07 01:28:00,31.9,25.8,29.93,ENE,65,0.0,4.0,78,0.00,,SKC,0.00,VWS V14.00,2013-03-07 08:28:00,
2013-03-07 01:33:00,31.9,25.2,29.94,SSE,165,0.0,1.0,76,0.00,,SKC,0.00,VWS V14.00,2013-03-07 08:33:00,
2013-03-07 01:39:00,32.1,25.4,29.94,SSE,165,0.0,2.0,76,0.00,,SKC,0.00,VWS V14.00,2013-03-07 08:39:00,
2013-03-07 01:44:00,31.9,25.2,29.94,SSE,165,0.0,2.0,76,0.00,,SKC,0.00,VWS V14.00,2013-03-07 08:44:00,
2013-03-07 01:49:00,31.6,24.6,29.94,SSE,165,0.0,2.0,75,0.00,,SKC,0.00,VWS V14.00,2013-03-07 08:49:00,
2013-03-07 01:55:00,31.4,25.6,29.94,SSE,148,1.0,4.0,79,0.00,,SKC,0.00,VWS V14.00,2013-03-07 08:55:00,
2013-03-07 02:00:00,31.2,24.8,29.94,SSE,148,0.0,4.0,77,0.00,,SKC,0.00,VWS V14.00,2013-03-07 09:00:00,
2013-03-07 02:05:00,30.9,26.1,29.94,SSE,148,0.0,0.0,82,0.00,,SKC,0.00,VWS V14.00,2013-03-07 09:05:00,
2013-03-07 02:11:00,31.2,25.8,29.94,SSE,148,0.0,2.0,80,0.00,,SKC,0.00,VWS V14.00,2013-03-07 09:11:00,
2013-03-07 02:16:00,31.4,25.4,29.93,SSE,148,0.0,2.0,78,0.00,,SKC,0.00,VWS V14.00,2013-03-07 09:16:00,
2013-03-07 02:21:00,31.3,24.9,29.93,ESE,113,0.0,4.0,77,0.00,,SKC,0.00,VWS V14.00,2013-03-07 09:21:00,
2013-03-07 02:26:00,31.4,26.0,29.93,ESE,113,0.0,4.0,80,0.00,,SKC,0.00,VWS V14.00,2013-03-07 09:26:00,
2013-03-07 02:32:00,31.1,24.4,29.93,ESE,113,0.0,4.0,76,0.00,,SKC,0.00,VWS V14.00,2013-03-07 09:32:00,
2013-03-07 02:37:00,30.8,24.5,29.93,ESE,113,1.0,2.0,77,0.00,,SKC,0.00,VWS V14.00,2013-03-07 09:37:00,
2013-03-07 02:42:00,30.8,26.0,29.93,ESE,113,0.0,2.0,82,0.00,,SKC,0.00,VWS V14.00,2013-03-07 09:42:00,
2013-03-07 02:48:00,30.8,26.3,29.92,ESE,113,1.0,4.0,83,0.00,,SKC,0.00,VWS V14.00,2013-03-07 09:48:00,
2013-03-07 02:53:00,30.8,26.0,29.92,ESE,113,0.0,4.0,82,0.00,,SKC,0.00,VWS V14.00,2013-03-07 09:53:00,
2013-03-07 02:58:00,30.8,25.4,29.92,ESE,113,0.0,4.0,80,0.00,,SKC,0.00,VWS V14.00,2013-03-07 09:58:00,
2013-03-07 03:04:00,31.1,26.8,29.92,ESE,113,0.0,2.0,84,0.00,,SKC,0.00,VWS V14.00,2013-03-07 10:04:00,
2013-03-07 03:09:00,31.4,26.5,29.92,ESE,113,0.0,2.0,82,0.00,,SKC,0.00,VWS V14.00,2013-03-07 10:09:00,
2013-03-07 03:14:00,31.5,26.4,29.92,ESE,113,0.0,4.0,81,0.00,,SKC,0.00,VWS V14.00,2013-03-07 10:14:00,
2013-03-07 03:19:00,31.7,27.1,29.92,ESE,113,0.0,4.0,83,0.00,,SKC,0.00,VWS V14.00,2013-03-07 10:19:00,
2013-03-07 03:25:00,31.7,26.2,29.92,ESE,113,0.0,4.0,80,0.00,,SKC,0.00,VWS V14.00,2013-03-07 10:25:00,
2013-03-07 03:30:00,31.6,26.8,29.92,ESE,113,0.0,4.0,82,0.00,,SKC,0.00,VWS V14.00,2013-03-07 10:30:00,
2013-03-07 03:35:00,31.9,26.1,29.92,ESE,113,1.0,2.0,79,0.00,,SKC,0.00,VWS V14.00,2013-03-07 10:35:00,
2013-03-07 03:41:00,31.9,25.5,29.92,ESE,113,0.0,4.0,77,0.00,,SKC,0.00,VWS V14.00,2013-03-07 10:41:00,
2013-03-07 03:46:00,31.5,25.4,29.92,ESE,113,0.0,4.0,78,0.00,,SKC,0.00,VWS V14.00,2013-03-07 10:46:00,
2013-03-07 03:51:00,31.5,26.4,29.92,ESE,113,0.0,4.0,81,0.00,,SKC,0.00,VWS V14.00,2013-03-07 10:51:00,
2013-03-07 03:56:00,31.3,25.2,29.92,ESE,113,0.0,4.0,78,0.00,,SKC,0.00,VWS V14.00,2013-03-07 10:56:00,
2013-03-07 04:02:00,31.4,26.5,29.92,ESE,113,0.0,4.0,82,0.00,,SKC,0.00,VWS V14.00,2013-03-07 11:02:00,
2013-03-07 04:07:00,31.2,25.8,29.92,ESE,113,0.0,0.0,80,0.00,,SKC,0.00,VWS V14.00,2013-03-07 11:07:00,
2013-03-07 04:12:00,31.2,25.8,29.93,ESE,113,1.0,2.0,80,0.00,,SKC,0.00,VWS V14.00,2013-03-07 11:12:00,
2013-03-07 04:18:00,31.0,25.3,29.93,ESE,113,0.0,2.0,79,0.00,,SKC,0.00,VWS V14.00,2013-03-07 11:18:00,
2013-03-07 04:23:00,31.1,26.3,29.93,ENE,59,0.0,5.0,82,0.00,,SKC,0.00,VWS V14.00,2013-03-07 11:23:00,
2013-03-07 04:28:00,31.0,25.0,29.93,North,11,1.0,5.0,78,0.00,,SKC,0.00,VWS V14.00,2013-03-07 11:28:00,
2013-03-07 04:33:00,30.8,24.8,29.93,North,11,0.0,0.0,78,0.00,,SKC,0.00,VWS V14.00,2013-03-07 11:33:00,
2013-03-07 04:39:00,30.6,24.9,29.94,North,11,1.0,2.0,79,0.00,,SKC,0.00,VWS V14.00,2013-03-07 11:39:00,
2013-03-07 04:44:00,30.3,24.3,29.94,North,11,0.0,2.0,78,0.00,,SKC,0.00,VWS V14.00,2013-03-07 11:44:00,
2013-03-07 04:49:00,30.0,24.6,29.94,NNE,30,0.0,3.0,80,0.00,,SKC,0.00,VWS V14.00,2013-03-07 11:49:00,
2013-03-07 04:55:00,29.9,24.5,29.94,NNE,30,2.0,3.0,80,0.00,,SKC,0.00,VWS V14.00,2013-03-07 11:55:00,
2013-03-07 05:01:00,30.3,25.2,29.95,NNE,32,0.0,3.0,81,0.00,,SKC,0.00,VWS V14.00,2013-03-07 12:01:00,
2013-03-07 05:06:00,30.5,25.1,29.95,NNE,32,0.0,0.0,80,0.00,,SKC,0.00,VWS V14.00,2013-03-07 12:06:00,
2013-03-07 05:11:00,30.7,25.6,29.95,NNE,32,1.0,3.0,81,0.00,,SKC,0.00,VWS V14.00,2013-03-07 12:11:00,
2013-03-07 05:17:00,30.4,24.7,29.95,NNE,32,2.0,3.0,79,0.00,,SKC,0.00,VWS V14.00,2013-03-07 12:17:00,
2013-03-07 05:22:00,30.2,24.8,29.95,NNE,32,0.0,3.0,80,0.00,,SKC,0.00,VWS V14.00,2013-03-07 12:22:00,
2013-03-07 05:27:00,29.8,24.4,29.95,NNE,32,0.0,3.0,80,0.00,,SKC,0.00,VWS V14.00,2013-03-07 12:27:00,
2013-03-07 05:33:00,29.7,24.3,29.95,NNE,32,0.0,3.0,80,0.00,,SKC,0.00,VWS V14.00,2013-03-07 12:33:00,
2013-03-07 05:38:00,29.0,23.9,29.95,NNE,32,0.0,3.0,81,0.00,,SKC,0.00,VWS V14.00,2013-03-07 12:38:00,
2013-03-07 05:43:00,29.0,23.9,29.96,NNE,32,1.0,3.0,81,0.00,,SKC,0.00,VWS V14.00,2013-03-07 12:43:00,
2013-03-07 05:49:00,29.5,24.7,29.95,NNE,32,0.0,3.0,82,0.00,,SKC,0.00,VWS V14.00,2013-03-07 12:49:00,
2013-03-07 05:54:00,29.7,25.5,29.96,NNE,32,0.0,3.0,84,0.00,,SKC,0.00,VWS V14.00,2013-03-07 12:54:00,
2013-03-07 05:59:00,29.5,24.4,29.95,NNE,32,0.0,3.0,81,0.00,,SKC,0.00,VWS V14.00,2013-03-07 12:59:00,
2013-03-07 06:05:00,29.2,24.4,29.96,NNE,32,0.0,2.0,82,0.00,,SKC,0.00,VWS V14.00,2013-03-07 13:05:00,
2013-03-07 06:10:00,29.0,23.9,29.96,NNE,32,2.0,2.0,81,0.00,,SKC,0.00,VWS V14.00,2013-03-07 13:10:00,
2013-03-07 06:15:00,28.7,23.9,29.97,NNE,32,0.0,2.0,82,0.00,,SKC,0.00,VWS V14.00,2013-03-07 13:15:00,
2013-03-07 06:21:00,28.6,24.4,29.97,NNE,32,1.0,2.0,84,0.00,,SKC,0.00,VWS V14.00,2013-03-07 13:21:00,
2013-03-07 06:26:00,28.5,23.4,29.97,NNE,32,1.0,2.0,81,0.00,,SKC,0.00,VWS V14.00,2013-03-07 13:26:00,
2013-03-07 06:31:00,28.4,23.9,29.97,NNE,32,0.0,3.0,83,0.00,,SKC,0.00,VWS V14.00,2013-03-07 13:31:00,
2013-03-07 06:36:00,28.4,24.2,29.97,NNE,32,0.0,2.0,84,0.00,,SKC,0.00,VWS V14.00,2013-03-07 13:36:00,
2013-03-07 06:42:00,28.5,24.0,29.97,NNE,32,0.0,2.0,83,0.00,,SKC,0.00,VWS V14.00,2013-03-07 13:42:00,
2013-03-07 06:47:00,28.2,23.7,29.97,ENE,71,1.0,3.0,83,0.00,,SKC,0.00,VWS V14.00,2013-03-07 13:47:00,
2013-03-07 06:52:00,28.2,23.4,29.98,ENE,71,0.0,4.0,82,0.00,,SKC,0.00,VWS V14.00,2013-03-07 13:52:00,
2013-03-07 06:57:00,28.1,23.6,29.97,ENE,71,0.0,4.0,83,0.00,,SKC,0.00,VWS V14.00,2013-03-07 13:57:00,
2013-03-07 07:03:00,28.1,23.9,29.98,ENE,71,0.0,1.0,84,0.00,,SKC,0.00,VWS V14.00,2013-03-07 14:03:00,
2013-03-07 07:09:00,28.1,23.9,29.97,ENE,71,1.0,2.0,84,0.00,,SKC,0.00,VWS V14.00,2013-03-07 14:09:00,
2013-03-07 07:14:00,28.3,24.1,29.97,ENE,71,0.0,2.0,84,0.00,,SKC,0.00,VWS V14.00,2013-03-07 14:14:00,
2013-03-07 07:19:00,28.2,23.7,29.97,ENE,71,0.0,2.0,83,0.00,,SKC,0.00,VWS V14.00,2013-03-07 14:19:00,
2013-03-07 07:24:00,28.3,24.1,29.97,ENE,71,0.0,2.0,84,0.00,,SKC,0.00,VWS V14.00,2013-03-07 14:24:00,
2013-03-07 07:30:00,28.5,24.0,29.97,ENE,71,0.0,2.0,83,0.00,,SKC,0.00,VWS V14.00,2013-03-07 14:30:00,
2013-03-07 07:35:00,28.7,24.5,29.97,ENE,71,2.0,2.0,84,0.00,,SKC,0.00,VWS V14.00,2013-03-07 14:35:00,
2013-03-07 07:40:00,29.0,24.2,29.97,ENE,71,1.0,2.0,82,0.00,,SKC,0.00,VWS V14.00,2013-03-07 14:40:00,
2013-03-07 07:46:00,29.2,24.4,29.97,ENE,71,0.0,2.0,82,0.00,,SKC,0.00,VWS V14.00,2013-03-07 14:46:00,
2013-03-07 07:51:00,29.5,25.0,29.97,ENE,71,0.0,2.0,83,0.00,,SKC,0.00,VWS V14.00,2013-03-07 14:51:00,
2013-03-07 07:57:00,29.7,24.9,29.97,ENE,71,0.0,2.0,82,0.00,,SKC,0.00,VWS V14.00,2013-03-07 14:57:00,
2013-03-07 08:02:00,30.1,25.3,29.97,ENE,71,0.0,2.0,82,0.00,,SKC,0.00,VWS V14.00,2013-03-07 15:02:00,
2013-03-07 08:07:00,30.4,26.4,29.97,ENE,71,0.0,2.0,85,0.00,,SKC,0.00,VWS V14.00,2013-03-07 15:07:00,
2013-03-07 08:13:00,30.9,26.1,29.97,ENE,71,0.0,2.0,82,0.00,,SKC,0.00,VWS V14.00,2013-03-07 15:13:00,
2013-03-07 08:18:00,31.2,26.1,29.97,ENE,71,0.0,2.0,81,0.00,,SKC,0.00,VWS V14.00,2013-03-07 15:18:00,
2013-03-07 08:23:00,31.8,26.6,29.98,ENE,71,0.0,2.0,81,0.00,,SKC,0.00,VWS V14.00,2013-03-07 15:23:00,
2013-03-07 08:28:00,32.6,26.5,29.98,ENE,71,0.0,2.0,78,0.00,,SKC,0.00,VWS V14.00,2013-03-07 15:28:00,
2013-03-07 08:34:00,33.3,26.6,29.98,SSE,167,2.0,5.0,76,0.00,,SKC,0.00,VWS V14.00,2013-03-07 15:34:00,
2013-03-07 08:39:00,34.1,26.7,29.97,SSE,167,0.0,5.0,74,0.00,,SKC,0.00,VWS V14.00,2013-03-07 15:39:00,
2013-03-07 08:44:00,35.1,25.3,29.97,SSE,167,0.0,5.0,67,0.00,,SKC,0.00,VWS V14.00,2013-03-07 15:44:00,
2013-03-07 08:50:00,36.2,26.7,29.97,SSE,167,0.0,5.0,68,0.00,,SKC,0.00,VWS V14.00,2013-03-07 15:50:00,
2013-03-07 08:55:00,36.9,28.0,29.97,SSE,167,0.0,5.0,70,0.00,,SKC,0.00,VWS V14.00,2013-03-07 15:55:00,
2013-03-07 09:00:00,37.5,27.9,29.97,SSE,167,0.0,5.0,68,0.00,,SKC,0.00,VWS V14.00,2013-03-07 16:00:00,
2013-03-07 09:06:00,38.2,26.7,29.96,SSE,167,0.0,0.0,63,0.00,,SKC,0.00,VWS V14.00,2013-03-07 16:06:00,
2013-03-07 09:11:00,39.1,26.0,29.96,SSE,167,0.0,2.0,59,0.00,,SKC,0.00,VWS V14.00,2013-03-07 16:11:00,
2013-03-07 09:16:00,40.2,26.6,29.95,SSE,167,1.0,4.0,58,0.00,,SKC,0.00,VWS V14.00,2013-03-07 16:16:00,
2013-03-07 09:22:00,41.1,25.7,29.95,SSE,167,0.0,4.0,54,0.00,,SKC,0.00,VWS V14.00,2013-03-07 16:22:00,
2013-03-07 09:27:00,42.2,25.9,29.95,SSE,167,0.0,4.0,52,0.00,,SKC,0.00,VWS V14.00,2013-03-07 16:27:00,
2013-03-07 09:32:00,43.1,25.3,29.95,SSE,167,0.0,4.0,49,0.00,,SKC,0.00,VWS V14.00,2013-03-07 16:32:00,
2013-03-07 09:37:00,44.2,26.3,29.95,SSE,167,0.0,2.0,49,0.00,,SKC,0.00,VWS V14.00,2013-03-07 16:37:00,
2013-03-07 09:43:00,45.4,26.4,29.94,SSE,167,2.0,2.0,47,0.00,,SKC,0.00,VWS V14.00,2013-03-07 16:43:00,
2013-03-07 09:48:00,46.2,26.0,29.94,SSE,167,2.0,5.0,45,0.00,,SKC,0.00,VWS V14.00,2013-03-07 16:48:00,
2013-03-07 09:53:00,46.9,25.6,29.94,SSE,167,1.0,5.0,43,0.00,,SKC,0.00,VWS V14.00,2013-03-07 16:53:00,
2013-03-07 09:58:00,48.0,26.6,29.94,South,171,2.0,5.0,43,0.00,,SKC,0.00,VWS V14.00,2013-03-07 16:58:00,
2013-03-07 10:04:00,48.9,23.8,29.94,SSE,165,6.0,9.0,37,0.00,,SKC,0.00,VWS V14.00,2013-03-07 17:04:00,
2013-03-07 10:09:00,50.0,24.1,29.93,South,182,3.0,9.0,36,0.00,,SKC,0.00,VWS V14.00,2013-03-07 17:09:00,
2013-03-07 10:14:00,50.9,24.2,29.93,SSE,167,0.0,9.0,35,0.00,,SKC,0.00,VWS V14.00,2013-03-07 17:14:00,
2013-03-07 10:19:00,51.8,22.9,29.93,SSW,194,0.0,9.0,32,0.00,,SKC,0.00,VWS V14.00,2013-03-07 17:19:00,
2013-03-07 10:25:00,52.3,22.6,29.92,SW,223,6.0,9.0,31,0.00,,SKC,0.00,VWS V14.00,2013-03-07 17:25:00,
2013-03-07 10:30:00,52.7,23.7,29.92,SW,223,0.0,9.0,32,0.00,,SKC,0.00,VWS V14.00,2013-03-07 17:30:00,
2013-03-07 10:35:00,53.0,19.9,29.92,SE,135,0.0,12.0,27,0.00,,SKC,0.00,VWS V14.00,2013-03-07 17:35:00,
2013-03-07 10:41:00,53.3,21.0,29.93,SW,215,0.0,12.0,28,0.00,,SKC,0.00,VWS V14.00,2013-03-07 17:41:00,
2013-03-07 10:47:00,53.8,22.3,29.92,South,173,6.0,12.0,29,0.00,,SKC,0.00,VWS V14.00,2013-03-07 17:47:00,
2013-03-07 10:52:00,54.2,21.0,29.92,SSE,153,0.0,12.0,27,0.00,,SKC,0.00,VWS V14.00,2013-03-07 17:52:00,
2013-03-07 10:57:00,54.3,21.0,29.91,SW,221,2.0,12.0,27,0.00,,SKC,0.00,VWS V14.00,2013-03-07 17:57:00,
2013-03-07 11:02:00,54.2,21.8,29.92,WNW,290,5.0,5.0,28,0.00,,SKC,0.00,VWS V14.00,2013-03-07 18:02:00,
2013-03-07 11:07:00,54.1,20.9,29.91,WSW,244,1.0,6.0,27,0.00,,SKC,0.00,VWS V14.00,2013-03-07 18:07:00,
2013-03-07 11:13:00,54.2,22.6,29.91,SW,217,3.0,6.0,29,0.00,,SKC,0.00,VWS V14.00,2013-03-07 18:13:00,
2013-03-07 11:18:00,54.4,21.1,29.91,SW,227,4.0,7.0,27,0.00,,SKC,0.00,VWS V14.00,2013-03-07 18:18:00,
2013-03-07 11:23:00,54.6,20.4,29.91,SSW,196,0.0,7.0,26,0.00,,SKC,0.00,VWS V14.00,2013-03-07 18:23:00,
2013-03-07 11:28:00,54.8,21.5,29.91,SSW,196,2.0,7.0,27,0.00,,SKC,0.00,VWS V14.00,2013-03-07 18:28:00,
2013-03-07 11:34:00,55.3,19.1,29.91,SSW,196,0.0,3.0,24,0.00,,SKC,0.00,VWS V14.00,2013-03-07 18:34:00,
2013-03-07 11:39:00,55.7,21.4,29.91,South,186,1.0,5.0,26,0.00,,SKC,0.00,VWS V14.00,2013-03-07 18:39:00,
2013-03-07 11:44:00,55.9,21.5,29.91,SW,222,0.0,7.0,26,0.00,,SKC,0.00,VWS V14.00,2013-03-07 18:44:00,
2013-03-07 11:49:00,55.7,20.4,29.91,SSW,213,4.0,7.0,25,0.00,,SKC,0.00,VWS V14.00,2013-03-07 18:49:00,
2013-03-07 11:55:00,55.6,18.4,29.90,South,174,2.0,10.0,23,0.00,,SKC,0.00,VWS V14.00,2013-03-07 18:55:00,
2013-03-07 12:00:00,55.8,18.6,29.90,SW,216,3.0,10.0,23,0.00,,SKC,0.00,VWS V14.00,2013-03-07 19:00:00,
2013-03-07 12:06:00,55.8,17.5,29.90,SSW,207,4.0,10.0,22,0.00,,SKC,0.00,VWS V14.00,2013-03-07 19:06:00,
2013-03-07 12:11:00,55.7,18.5,29.90,SSW,198,5.0,10.0,23,0.00,,SKC,0.00,VWS V14.00,2013-03-07 19:11:00,
2013-03-07 12:16:00,55.7,16.4,29.90,South,182,7.0,12.0,21,0.00,,SKC,0.00,VWS V14.00,2013-03-07 19:16:00,
2013-03-07 12:22:00,55.7,17.5,29.89,South,178,8.0,12.0,22,0.00,,SKC,0.00,VWS V14.00,2013-03-07 19:22:00,
2013-03-07 12:28:00,55.7,17.5,29.89,South,183,0.0,12.0,22,0.00,,SKC,0.00,VWS V14.00,2013-03-07 19:28:00,
2013-03-07 12:33:00,56.1,18.8,29.89,WSW,242,2.0,2.0,23,0.00,,SKC,0.00,VWS V14.00,2013-03-07 19:33:00,
2013-03-07 12:38:00,56.3,16.9,29.89,SW,224,0.0,9.0,21,0.00,,SKC,0.00,VWS V14.00,2013-03-07 19:38:00,
2013-03-07 12:44:00,56.3,19.0,29.88,SW,225,4.0,9.0,23,0.00,,SKC,0.00,VWS V14.00,2013-03-07 19:44:00,
2013-03-07 12:49:00,56.5,18.1,29.88,South,178,0.0,9.0,22,0.00,,SKC,0.00,VWS V14.00,2013-03-07 19:49:00,
2013-03-07 12:54:00,56.7,19.3,29.87,North,9,2.0,9.0,23,0.00,,SKC,0.00,VWS V14.00,2013-03-07 19:54:00,
2013-03-07 13:00:00,56.7,17.2,29.87,South,184,3.0,10.0,21,0.00,,SKC,0.00,VWS V14.00,2013-03-07 20:00:00,
2013-03-07 13:05:00,56.5,15.9,29.87,South,175,8.0,11.0,20,0.00,,SKC,0.00,VWS V14.00,2013-03-07 20:05:00,
2013-03-07 13:10:00,56.5,15.9,29.87,SW,219,7.0,11.0,20,0.00,,SKC,0.00,VWS V14.00,2013-03-07 20:10:00,
2013-03-07 13:15:00,56.6,18.2,29.87,South,188,2.0,11.0,22,0.00,,SKC,0.00,VWS V14.00,2013-03-07 20:15:00,
2013-03-07 13:21:00,56.7,17.2,29.86,SW,231,2.0,11.0,21,0.00,,SKC,0.00,VWS V14.00,2013-03-07 20:21:00,
2013-03-07 13:26:00,57.0,16.4,29.86,SSW,205,3.0,11.0,20,0.00,,SKC,0.00,VWS V14.00,2013-03-07 20:26:00,
2013-03-07 13:31:00,57.0,16.4,29.86,South,170,4.0,15.0,20,0.00,,SKC,0.00,VWS V14.00,2013-03-07 20:31:00,
2013-03-07 13:37:00,57.0,16.4,29.86,SSW,200,4.0,8.0,20,0.00,,SKC,0.00,VWS V14.00,2013-03-07 20:37:00,
2013-03-07 13:42:00,57.1,16.4,29.86,SSE,158,5.0,8.0,20,0.00,,SKC,0.00,VWS V14.00,2013-03-07 20:42:00,
2013-03-07 13:47:00,57.1,16.4,29.85,West,275,5.0,12.0,20,0.00,,SKC,0.00,VWS V14.00,2013-03-07 20:47:00,
2013-03-07 13:52:00,57.5,16.8,29.85,SW,232,3.0,12.0,20,0.00,,SKC,0.00,VWS V14.00,2013-03-07 20:52:00,
2013-03-07 13:58:00,57.3,15.4,29.85,South,179,5.0,12.0,19,0.00,,SKC,0.00,VWS V14.00,2013-03-07 20:58:00,
2013-03-07 14:03:00,57.8,15.8,29.85,SSW,194,8.0,9.0,19,0.00,,SKC,0.00,VWS V14.00,2013-03-07 21:03:00,
2013-03-07 14:08:00,57.9,17.1,29.85,SW,221,0.0,9.0,20,0.00,,SKC,0.00,VWS V14.00,2013-03-07 21:08:00,
2013-03-07 14:13:00,58.0,17.2,29.85,SSE,167,2.0,9.0,20,0.00,,SKC,0.00,VWS V14.00,2013-03-07 21:13:00,
2013-03-07 14:19:00,58.0,17.2,29.85,SW,215,3.0,12.0,20,0.00,,SKC,0.00,VWS V14.00,2013-03-07 21:19:00,
2013-03-07 14:24:00,58.3,17.4,29.85,SW,217,3.0,12.0,20,0.00,,SKC,0.00,VWS V14.00,2013-03-07 21:24:00,
2013-03-07 14:29:00,58.2,16.2,29.85,West,265,5.0,12.0,19,0.00,,SKC,0.00,VWS V14.00,2013-03-07 21:29:00,
2013-03-07 14:35:00,58.0,16.0,29.85,SSW,194,5.0,10.0,19,0.00,,SKC,0.00,VWS V14.00,2013-03-07 21:35:00,
2013-03-07 14:40:00,58.0,16.0,29.84,WSW,237,2.0,10.0,19,0.00,,SKC,0.00,VWS V14.00,2013-03-07 21:40:00,
2013-03-07 14:45:00,58.4,16.3,29.84,SW,223,1.0,10.0,19,0.00,,SKC,0.00,VWS V14.00,2013-03-07 21:45:00,
2013-03-07 14:51:00,58.9,16.7,29.84,West,263,3.0,10.0,19,0.00,,SKC,0.00,VWS V14.00,2013-03-07 21:51:00,
2013-03-07 14:56:00,59.1,18.1,29.84,WSW,249,0.0,10.0,20,0.00,,SKC,0.00,VWS V14.00,2013-03-07 21:56:00,
2013-03-07 15:01:00,59.3,15.8,29.84,WSW,240,4.0,10.0,18,0.00,,SKC,0.00,VWS V14.00,2013-03-07 22:01:00,
2013-03-07 15:07:00,59.0,15.6,29.84,West,272,1.0,12.0,18,0.00,,SKC,0.00,VWS V14.00,2013-03-07 22:07:00,
2013-03-07 15:12:00,58.7,16.6,29.84,WSW,242,1.0,12.0,19,0.00,,SKC,0.00,VWS V14.00,2013-03-07 22:12:00,
2013-03-07 15:17:00,58.7,15.3,29.84,SW,223,3.0,12.0,18,0.00,,SKC,0.00,VWS V14.00,2013-03-07 22:17:00,
2013-03-07 15:23:00,59.0,16.8,29.85,South,179,6.0,12.0,19,0.00,,SKC,0.00,VWS V14.00,2013-03-07 22:23:00,
2013-03-07 15:28:00,59.6,17.3,29.84,ESE,115,4.0,12.0,19,0.00,,SKC,0.00,VWS V14.00,2013-03-07 22:28:00,
2013-03-07 15:33:00,59.5,14.7,29.84,SW,225,4.0,4.0,17,0.00,,SKC,0.00,VWS V14.00,2013-03-07 22:33:00,
2013-03-07 15:38:00,59.6,14.8,29.84,WSW,248,0.0,5.0,17,0.00,,SKC,0.00,VWS V14.00,2013-03-07 22:38:00,
2013-03-07 15:44:00,60.2,15.2,29.84,WSW,243,3.0,10.0,17,0.00,,SKC,0.00,VWS V14.00,2013-03-07 22:44:00,
2013-03-07 15:49:00,60.0,13.7,29.84,SSE,155,5.0,14.0,16,0.00,,SKC,0.00,VWS V14.00,2013-03-07 22:49:00,
2013-03-07 15:54:00,59.9,13.6,29.84,SW,227,0.0,14.0,16,0.00,,SKC,0.00,VWS V14.00,2013-03-07 22:54:00,
2013-03-07 16:00:00,59.6,13.4,29.84,SW,221,4.0,14.0,16,0.00,,SKC,0.00,VWS V14.00,2013-03-07 23:00:00,
2013-03-07 16:05:00,59.1,13.0,29.84,SSW,209,3.0,9.0,16,0.00,,SKC,0.00,VWS V14.00,2013-03-07 23:05:00,
2013-03-07 16:10:00,59.0,14.3,29.84,SW,228,5.0,10.0,17,0.00,,SKC,0.00,VWS V14.00,2013-03-07 23:10:00,
2013-03-07 16:16:00,58.7,14.0,29.84,WNW,284,5.0,10.0,17,0.00,,SKC,0.00,VWS V14.00,2013-03-07 23:16:00,
2013-03-07 16:21:00,58.7,15.3,29.84,SSW,198,2.0,10.0,18,0.00,,SKC,0.00,VWS V14.00,2013-03-07 23:21:00,
2013-03-07 16:26:00,59.1,14.4,29.83,SW,229,0.0,10.0,17,0.00,,SKC,0.00,VWS V14.00,2013-03-07 23:26:00,
2013-03-07 16:32:00,59.3,13.1,29.83,SSW,202,2.0,10.0,16,0.00,,SKC,0.00,VWS V14.00,2013-03-07 23:32:00,
2013-03-07 16:37:00,59.4,17.1,29.83,SSW,202,0.0,4.0,19,0.00,,SKC,0.00,VWS V14.00,2013-03-07 23:37:00,
2013-03-07 16:42:00,59.9,16.3,29.83,South,186,0.0,4.0,18,0.00,,SKC,0.00,VWS V14.00,2013-03-07 23:42:00,
2013-03-07 16:47:00,59.7,16.1,29.83,SSW,192,0.0,6.0,18,0.00,,SKC,0.00,VWS V14.00,2013-03-07 23:47:00,
2013-03-07 16:53:00,59.5,16.0,29.83,SSE,147,0.0,6.0,18,0.00,,SKC,0.00,VWS V14.00,2013-03-07 23:53:00,
2013-03-07 16:58:00,59.4,14.6,29.83,SSW,207,3.0,6.0,17,0.00,,SKC,0.00,VWS V14.00,2013-03-07 23:58:00,
2013-03-07 17:03:00,58.9,16.7,29.83,South,184,1.0,6.0,19,0.00,,SKC,0.00,VWS V14.00,2013-03-08 00:03:00,
2013-03-07 17:09:00,58.5,16.4,29.83,SSE,164,0.0,6.0,19,0.00,,SKC,0.00,VWS V14.00,2013-03-08 00:09:00,
2013-03-07 17:14:00,58.3,17.4,29.83,WSW,246,0.0,6.0,20,0.00,,SKC,0.00,VWS V14.00,2013-03-08 00:14:00,
2013-03-07 17:19:00,58.0,18.3,29.83,WSW,246,0.0,6.0,21,0.00,,SKC,0.00,VWS V14.00,2013-03-08 00:19:00,
2013-03-07 17:25:00,56.9,22.4,29.82,NNE,28,3.0,6.0,26,0.00,,SKC,0.00,VWS V14.00,2013-03-08 00:25:00,
2013-03-07 17:30:00,52.8,23.8,29.83,NNE,32,1.0,6.0,32,0.00,,SKC,0.00,VWS V14.00,2013-03-08 00:30:00,
2013-03-07 17:35:00,49.7,21.8,29.83,NNE,32,0.0,4.0,33,0.00,,SKC,0.00,VWS V14.00,2013-03-08 00:35:00,
2013-03-07 17:41:00,47.6,23.9,29.83,NNE,32,0.0,4.0,39,0.00,,SKC,0.00,VWS V14.00,2013-03-08 00:41:00,
2013-03-07 17:46:00,46.2,25.0,29.83,NNE,32,0.0,4.0,43,0.00,,SKC,0.00,VWS V14.00,2013-03-08 00:46:00,
2013-03-07 17:52:00,44.7,23.6,29.83,NNE,32,2.0,4.0,43,0.00,,SKC,0.00,VWS V14.00,2013-03-08 00:52:00,
2013-03-07 17:57:00,43.8,24.4,29.83,NNE,32,2.0,4.0,46,0.00,,SKC,0.00,VWS V14.00,2013-03-08 00:57:00,
2013-03-07 18:02:00,43.1,25.3,29.83,NNE,32,0.0,0.0,49,0.00,,SKC,0.00,VWS V14.00,2013-03-08 01:02:00,
2013-03-07 18:08:00,42.4,25.1,29.84,NNE,32,0.0,3.0,50,0.00,,SKC,0.00,VWS V14.00,2013-03-08 01:08:00,
2013-03-07 18:13:00,41.7,25.4,29.84,NE,39,3.0,4.0,52,0.00,,SKC,0.00,VWS V14.00,2013-03-08 01:13:00,
2013-03-07 18:18:00,41.1,25.7,29.84,NE,35,0.0,4.0,54,0.00,,SKC,0.00,VWS V14.00,2013-03-08 01:18:00,
2013-03-07 18:23:00,40.5,24.7,29.84,NE,35,0.0,4.0,53,0.00,,SKC,0.00,VWS V14.00,2013-03-08 01:23:00,
2013-03-07 18:29:00,40.2,25.3,29.84,NE,35,0.0,4.0,55,0.00,,SKC,0.00,VWS V14.00,2013-03-08 01:29:00,
2013-03-07 18:34:00,39.7,26.6,29.85,NE,35,0.0,3.0,59,0.00,,SKC,0.00,VWS V14.00,2013-03-08 01:34:00,
2013-03-07 18:39:00,39.0,24.2,29.85,ENE,59,2.0,4.0,55,0.00,,SKC,0.00,VWS V14.00,2013-03-08 01:39:00,
2013-03-07 18:44:00,39.0,25.1,29.86,ENE,59,0.0,4.0,57,0.00,,SKC,0.00,VWS V14.00,2013-03-08 01:44:00,
2013-03-07 18:50:00,38.8,25.7,29.86,ENE,59,0.0,4.0,59,0.00,,SKC,0.00,VWS V14.00,2013-03-08 01:50:00,
2013-03-07 18:55:00,38.3,24.0,29.86,ENE,59,0.0,4.0,56,0.00,,SKC,0.00,VWS V14.00,2013-03-08 01:55:00,
2013-03-07 19:00:00,38.4,24.1,29.87,ENE,59,0.0,4.0,56,0.00,,SKC,0.00,VWS V14.00,2013-03-08 02:00:00,
2013-03-07 19:06:00,38.3,25.6,29.87,ENE,67,0.0,4.0,60,0.00,,SKC,0.00,VWS V14.00,2013-03-08 02:06:00,
2013-03-07 19:11:00,37.9,24.5,29.87,ENE,67,0.0,4.0,58,0.00,,SKC,0.00,VWS V14.00,2013-03-08 02:11:00,
2013-03-07 19:16:00,37.6,24.6,29.87,ENE,67,0.0,4.0,59,0.00,,SKC,0.00,VWS V14.00,2013-03-08 02:16:00,
2013-03-07 19:21:00,37.8,23.1,29.87,ENE,67,0.0,4.0,55,0.00,,SKC,0.00,VWS V14.00,2013-03-08 02:21:00,
2013-03-07 19:27:00,38.1,25.9,29.87,ENE,67,1.0,4.0,61,0.00,,SKC,0.00,VWS V14.00,2013-03-08 02:27:00,
2013-03-07 19:32:00,37.4,26.0,29.87,ENE,67,0.0,4.0,63,0.00,,SKC,0.00,VWS V14.00,2013-03-08 02:32:00,
2013-03-07 19:37:00,37.2,26.9,29.87,ENE,67,0.0,0.0,66,0.00,,SKC,0.00,VWS V14.00,2013-03-08 02:37:00,
2013-03-07 19:42:00,36.8,25.0,29.88,ENE,67,0.0,3.0,62,0.00,,SKC,0.00,VWS V14.00,2013-03-08 02:42:00,
2013-03-07 19:48:00,36.4,25.0,29.88,ENE,67,0.0,3.0,63,0.00,,SKC,0.00,VWS V14.00,2013-03-08 02:48:00,
2013-03-07 19:53:00,36.2,25.6,29.88,ENE,67,0.0,3.0,65,0.00,,SKC,0.00,VWS V14.00,2013-03-08 02:53:00,
2013-03-07 19:58:00,36.0,26.1,29.88,ENE,67,2.0,3.0,67,0.00,,SKC,0.00,VWS V14.00,2013-03-08 02:58:00,
2013-03-07 20:03:00,35.6,24.3,29.88,ENE,67,0.0,1.0,63,0.00,,SKC,0.00,VWS V14.00,2013-03-08 03:03:00,
2013-03-07 20:09:00,35.7,25.5,29.88,ENE,67,0.0,3.0,66,0.00,,SKC,0.00,VWS V14.00,2013-03-08 03:09:00,
2013-03-07 20:14:00,35.3,24.4,29.88,ENE,67,0.0,3.0,64,0.00,,SKC,0.00,VWS V14.00,2013-03-08 03:14:00,
2013-03-07 20:19:00,34.9,23.2,29.88,ENE,67,1.0,3.0,62,0.00,,SKC,0.00,VWS V14.00,2013-03-08 03:19:00,
2013-03-07 20:24:00,35.1,25.6,29.88,ENE,67,0.0,3.0,68,0.00,,SKC,0.00,VWS V14.00,2013-03-08 03:24:00,
2013-03-07 20:30:00,35.0,23.3,29.88,ENE,67,0.0,3.0,62,0.00,,SKC,0.00,VWS V14.00,2013-03-08 03:30:00,
2013-03-07 20:35:00,34.9,25.4,29.88,ENE,67,1.0,2.0,68,0.00,,SKC,0.00,VWS V14.00,2013-03-08 03:35:00,
2013-03-07 20:40:00,34.6,24.1,29.88,ENE,66,1.0,4.0,65,0.00,,SKC,0.00,VWS V14.00,2013-03-08 03:40:00,
2013-03-07 20:45:00,34.2,22.9,29.88,ENE,66,0.0,4.0,63,0.00,,SKC,0.00,VWS V14.00,2013-03-08 03:45:00,
2013-03-07 20:51:00,34.4,25.6,29.88,ENE,66,0.0,4.0,70,0.00,,SKC,0.00,VWS V14.00,2013-03-08 03:51:00,
2013-03-07 20:56:00,34.3,23.4,29.88,ENE,66,1.0,4.0,64,0.00,,SKC,0.00,VWS V14.00,2013-03-08 03:56:00,
2013-03-07 21:01:00,34.3,23.4,29.88,ENE,66,0.0,4.0,64,0.00,,SKC,0.00,VWS V14.00,2013-03-08 04:01:00,
2013-03-07 21:06:00,34.3,24.1,29.89,ENE,66,0.0,0.0,66,0.00,,SKC,0.00,VWS V14.00,2013-03-08 04:06:00,
2013-03-07 21:12:00,34.6,24.4,29.88,ENE,66,0.0,3.0,66,0.00,,SKC,0.00,VWS V14.00,2013-03-08 04:12:00,
2013-03-07 21:17:00,34.6,22.9,29.88,ENE,66,0.0,3.0,62,0.00,,SKC,0.00,VWS V14.00,2013-03-08 04:17:00,
2013-03-07 21:22:00,34.5,22.5,29.89,ENE,66,2.0,3.0,61,0.00,,SKC,0.00,VWS V14.00,2013-03-08 04:22:00,
2013-03-07 21:28:00,34.7,26.3,29.89,ENE,66,0.0,3.0,71,0.00,,SKC,0.00,VWS V14.00,2013-03-08 04:28:00,
2013-03-07 21:33:00,34.2,24.0,29.89,ENE,66,0.0,2.0,66,0.00,,SKC,0.00,VWS V14.00,2013-03-08 04:33:00,
2013-03-07 21:38:00,34.1,22.8,29.89,ENE,66,0.0,2.0,63,0.00,,SKC,0.00,VWS V14.00,2013-03-08 04:38:00,
2013-03-07 21:43:00,34.1,24.0,29.89,ENE,66,0.0,2.0,66,0.00,,SKC,0.00,VWS V14.00,2013-03-08 04:43:00,
2013-03-07 21:48:00,34.0,24.9,29.88,ENE,66,0.0,2.0,69,0.00,,SKC,0.00,VWS V14.00,2013-03-08 04:48:00,
2013-03-07 21:54:00,33.8,25.1,29.88,ENE,66,2.0,2.0,70,0.00,,SKC,0.00,VWS V14.00,2013-03-08 04:54:00,
2013-03-07 21:59:00,33.5,23.4,29.88,ENE,66,1.0,3.0,66,0.00,,SKC,0.00,VWS V14.00,2013-03-08 04:59:00,
2013-03-07 22:00:00,33.5,23.0,29.88,ENE,66,1.0,3.0,65,0.00,,SKC,0.00,VWS V14.00,2013-03-08 05:00:00,
2013-03-07 22:01:00,33.5,22.3,29.88,ENE,66,0.0,3.0,63,0.00,,SKC,0.00,VWS V14.00,2013-03-08 05:01:00,
2013-03-07 22:06:00,33.6,24.2,29.88,ENE,66,0.0,2.0,68,0.00,,SKC,0.00,VWS V14.00,2013-03-08 05:06:00,
2013-03-07 22:12:00,33.8,24.0,29.88,ENE,66,0.0,2.0,67,0.00,,SKC,0.00,VWS V14.00,2013-03-08 05:12:00,
2013-03-07 22:17:00,33.8,23.7,29.88,ENE,66,0.0,2.0,66,0.00,,SKC,0.00,VWS V14.00,2013-03-08 05:17:00,
2013-03-07 22:22:00,34.1,25.4,29.88,ENE,66,0.0,2.0,70,0.00,,SKC,0.00,VWS V14.00,2013-03-08 05:22:00,
2013-03-07 22:27:00,34.5,24.3,29.87,ENE,66,0.0,4.0,66,0.00,,SKC,0.00,VWS V14.00,2013-03-08 05:27:00,
2013-03-07 22:33:00,34.7,22.6,29.87,ENE,66,0.0,0.0,61,0.00,,SKC,0.00,VWS V14.00,2013-03-08 05:33:00,
2013-03-07 22:38:00,34.8,25.3,29.87,ENE,66,0.0,0.0,68,0.00,,SKC,0.00,VWS V14.00,2013-03-08 05:38:00,
2013-03-07 22:43:00,34.8,26.0,29.87,ENE,66,0.0,1.0,70,0.00,,SKC,0.00,VWS V14.00,2013-03-08 05:43:00,
2013-03-07 22:48:00,34.7,25.2,29.87,ENE,66,0.0,2.0,68,0.00,,SKC,0.00,VWS V14.00,2013-03-08 05:48:00,
2013-03-07 22:53:00,34.8,25.3,29.86,ENE,66,0.0,2.0,68,0.00,,SKC,0.00,VWS V14.00,2013-03-08 05:53:00,
2013-03-07 22:59:00,34.8,23.5,29.86,ENE,66,0.0,2.0,63,0.00,,SKC,0.00,VWS V14.00,2013-03-08 05:59:00,
2013-03-07 23:04:00,34.9,25.8,29.86,ENE,66,0.0,1.0,69,0.00,,SKC,0.00,VWS V14.00,2013-03-08 06:04:00,
2013-03-07 23:09:00,34.6,24.1,29.86,ENE,66,0.0,1.0,65,0.00,,SKC,0.00,VWS V14.00,2013-03-08 06:09:00,
2013-03-07 23:14:00,34.5,25.4,29.87,ENE,66,0.0,1.0,69,0.00,,SKC,0.00,VWS V14.00,2013-03-08 06:14:00,
2013-03-07 23:20:00,34.4,26.3,29.87,ENE,66,0.0,1.0,72,0.00,,SKC,0.00,VWS V14.00,2013-03-08 06:20:00,
2013-03-07 23:25:00,34.4,25.3,29.87,ENE,66,0.0,1.0,69,0.00,,SKC,0.00,VWS V14.00,2013-03-08 06:25:00,
2013-03-07 23:30:00,34.5,27.1,29.87,ENE,66,0.0,2.0,74,0.00,,SKC,0.00,VWS V14.00,2013-03-08 06:30:00,
2013-03-07 23:35:00,33.9,23.8,29.86,ENE,66,0.0,3.0,66,0.00,,SKC,0.00,VWS V14.00,2013-03-08 06:35:00,
2013-03-07 23:40:00,33.4,23.3,29.87,ENE,66,0.0,3.0,66,0.00,,SKC,0.00,VWS V14.00,2013-03-08 06:40:00,
2013-03-07 23:46:00,33.7,25.3,29.87,ENE,66,0.0,3.0,71,0.00,,SKC,0.00,VWS V14.00,2013-03-08 06:46:00,
2013-03-07 23:51:00,33.9,23.8,29.87,ENE,66,0.0,3.0,66,0.00,,SKC,0.00,VWS V14.00,2013-03-08 06:51:00,
2013-03-07 23:56:00,33.9,23.8,29.86,ENE,66,0.0,3.0,66,0.00,,SKC,0.00,VWS V14.00,2013-03-08 06:56:00,